sensor_id;sensor_type;location;lat;lon;timestamp;P1;durP1;ratioP1;P2;durP2;ratioP2
22851;SDS011;11592;45.460;9.240;2023-05-07T00:01:33;44.05;;;28.58;;
22851;SDS011;11592;45.460;9.240;2023-05-07T00:04:00;45.92;;;30.98;;
22851;SDS011;11592;45.460;9.240;2023-05-07T00:06:27;54.33;;;32.60;;
22851;SDS011;11592;45.460;9.240;2023-05-07T00:08:56;63.20;;;35.13;;
22851;SDS011;11592;45.460;9.240;2023-05-07T00:11:23;60.88;;;31.60;;
22851;SDS011;11592;45.460;9.240;2023-05-07T00:13:50;51.35;;;31.77;;
22851;SDS011;11592;45.460;9.240;2023-05-07T00:16:16;49.58;;;29.58;;
22851;SDS011;11592;45.460;9.240;2023-05-07T00:18:43;44.50;;;31.52;;
22851;SDS011;11592;45.460;9.240;2023-05-07T00:21:11;41.20;;;29.00;;
22851;SDS011;11592;45.460;9.240;2023-05-07T00:23:38;38.38;;;28.77;;
22851;SDS011;11592;45.460;9.240;2023-05-07T00:26:04;40.58;;;28.58;;
22851;SDS011;11592;45.460;9.240;2023-05-07T00:28:31;43.40;;;28.67;;
22851;SDS011;11592;45.460;9.240;2023-05-07T00:30:58;41.60;;;28.63;;
22851;SDS011;11592;45.460;9.240;2023-05-07T00:33:25;42.88;;;28.02;;
22851;SDS011;11592;45.460;9.240;2023-05-07T00:35:53;41.38;;;30.02;;
22851;SDS011;11592;45.460;9.240;2023-05-07T00:38:22;43.65;;;28.80;;
22851;SDS011;11592;45.460;9.240;2023-05-07T00:40:49;41.33;;;28.55;;
22851;SDS011;11592;45.460;9.240;2023-05-07T00:43:17;45.03;;;30.98;;
22851;SDS011;11592;45.460;9.240;2023-05-07T00:45:44;41.88;;;29.58;;
22851;SDS011;11592;45.460;9.240;2023-05-07T00:48:11;39.67;;;27.45;;
22851;SDS011;11592;45.460;9.240;2023-05-07T00:50:38;38.70;;;25.30;;
22851;SDS011;11592;45.460;9.240;2023-05-07T00:53:06;36.05;;;25.80;;
22851;SDS011;11592;45.460;9.240;2023-05-07T00:55:33;28.30;;;19.70;;
22851;SDS011;11592;45.460;9.240;2023-05-07T00:58:01;21.88;;;15.82;;
22851;SDS011;11592;45.460;9.240;2023-05-07T01:00:28;23.75;;;17.20;;
22851;SDS011;11592;45.460;9.240;2023-05-07T01:02:55;19.50;;;13.43;;
22851;SDS011;11592;45.460;9.240;2023-05-07T01:05:23;14.63;;;11.30;;
22851;SDS011;11592;45.460;9.240;2023-05-07T01:07:52;15.65;;;10.40;;
22851;SDS011;11592;45.460;9.240;2023-05-07T01:10:20;27.75;;;14.48;;
22851;SDS011;11592;45.460;9.240;2023-05-07T01:12:48;23.63;;;16.42;;
22851;SDS011;11592;45.460;9.240;2023-05-07T01:15:16;29.02;;;19.02;;
22851;SDS011;11592;45.460;9.240;2023-05-07T01:17:44;25.02;;;18.40;;
22851;SDS011;11592;45.460;9.240;2023-05-07T01:20:11;25.50;;;19.63;;
22851;SDS011;11592;45.460;9.240;2023-05-07T01:22:39;27.92;;;19.80;;
22851;SDS011;11592;45.460;9.240;2023-05-07T01:25:06;25.80;;;19.17;;
22851;SDS011;11592;45.460;9.240;2023-05-07T01:27:34;33.42;;;22.33;;
22851;SDS011;11592;45.460;9.240;2023-05-07T01:30:06;31.73;;;20.05;;
22851;SDS011;11592;45.460;9.240;2023-05-07T01:32:36;26.30;;;17.95;;
22851;SDS011;11592;45.460;9.240;2023-05-07T01:35:10;23.50;;;17.13;;
22851;SDS011;11592;45.460;9.240;2023-05-07T01:37:38;26.15;;;18.17;;
22851;SDS011;11592;45.460;9.240;2023-05-07T01:40:06;19.17;;;15.32;;
22851;SDS011;11592;45.460;9.240;2023-05-07T01:42:34;21.98;;;15.75;;
22851;SDS011;11592;45.460;9.240;2023-05-07T01:45:01;23.73;;;15.88;;
22851;SDS011;11592;45.460;9.240;2023-05-07T01:47:28;20.90;;;15.07;;
22851;SDS011;11592;45.460;9.240;2023-05-07T01:49:56;20.67;;;14.00;;
22851;SDS011;11592;45.460;9.240;2023-05-07T01:52:24;17.75;;;13.60;;
22851;SDS011;11592;45.460;9.240;2023-05-07T01:54:51;20.40;;;11.40;;
22851;SDS011;11592;45.460;9.240;2023-05-07T01:57:18;10.82;;;7.80;;
22851;SDS011;11592;45.460;9.240;2023-05-07T01:59:45;9.45;;;6.60;;
22851;SDS011;11592;45.460;9.240;2023-05-07T02:02:11;9.63;;;6.78;;
22851;SDS011;11592;45.460;9.240;2023-05-07T02:04:38;8.55;;;5.97;;
22851;SDS011;11592;45.460;9.240;2023-05-07T02:07:05;7.38;;;5.60;;
22851;SDS011;11592;45.460;9.240;2023-05-07T02:09:32;7.90;;;5.20;;
22851;SDS011;11592;45.460;9.240;2023-05-07T02:11:58;5.78;;;4.30;;
22851;SDS011;11592;45.460;9.240;2023-05-07T02:14:25;3.97;;;3.00;;
22851;SDS011;11592;45.460;9.240;2023-05-07T02:16:52;2.88;;;2.50;;
22851;SDS011;11592;45.460;9.240;2023-05-07T02:19:19;7.18;;;2.42;;
22851;SDS011;11592;45.460;9.240;2023-05-07T02:21:47;3.05;;;2.05;;
22851;SDS011;11592;45.460;9.240;2023-05-07T02:24:14;2.28;;;1.70;;
22851;SDS011;11592;45.460;9.240;2023-05-07T02:26:41;3.15;;;1.88;;
22851;SDS011;11592;45.460;9.240;2023-05-07T02:29:07;6.53;;;1.52;;
22851;SDS011;11592;45.460;9.240;2023-05-07T02:31:34;1.63;;;1.38;;
22851;SDS011;11592;45.460;9.240;2023-05-07T02:34:01;5.45;;;2.40;;
22851;SDS011;11592;45.460;9.240;2023-05-07T02:36:28;1.98;;;1.70;;
22851;SDS011;11592;45.460;9.240;2023-05-07T02:38:54;2.88;;;1.60;;
22851;SDS011;11592;45.460;9.240;2023-05-07T02:41:21;2.80;;;1.35;;
22851;SDS011;11592;45.460;9.240;2023-05-07T02:43:48;2.70;;;1.58;;
22851;SDS011;11592;45.460;9.240;2023-05-07T02:46:15;4.53;;;1.48;;
22851;SDS011;11592;45.460;9.240;2023-05-07T02:48:42;6.15;;;1.77;;
22851;SDS011;11592;45.460;9.240;2023-05-07T02:51:09;4.53;;;1.48;;
22851;SDS011;11592;45.460;9.240;2023-05-07T02:53:35;2.17;;;1.02;;
22851;SDS011;11592;45.460;9.240;2023-05-07T02:56:02;7.60;;;1.20;;
22851;SDS011;11592;45.460;9.240;2023-05-07T02:58:29;2.97;;;1.70;;
22851;SDS011;11592;45.460;9.240;2023-05-07T03:00:56;1.55;;;1.30;;
22851;SDS011;11592;45.460;9.240;2023-05-07T03:03:23;2.80;;;1.40;;
22851;SDS011;11592;45.460;9.240;2023-05-07T03:05:50;3.60;;;1.10;;
22851;SDS011;11592;45.460;9.240;2023-05-07T03:08:17;2.45;;;1.20;;
22851;SDS011;11592;45.460;9.240;2023-05-07T03:10:43;1.40;;;1.17;;
22851;SDS011;11592;45.460;9.240;2023-05-07T03:13:10;1.58;;;1.00;;
22851;SDS011;11592;45.460;9.240;2023-05-07T03:15:37;1.48;;;1.13;;
22851;SDS011;11592;45.460;9.240;2023-05-07T03:18:04;2.10;;;1.20;;
22851;SDS011;11592;45.460;9.240;2023-05-07T03:20:31;2.50;;;1.20;;
22851;SDS011;11592;45.460;9.240;2023-05-07T03:22:58;3.83;;;1.20;;
22851;SDS011;11592;45.460;9.240;2023-05-07T03:25:24;3.15;;;1.42;;
22851;SDS011;11592;45.460;9.240;2023-05-07T03:27:51;2.10;;;1.40;;
22851;SDS011;11592;45.460;9.240;2023-05-07T03:30:18;1.67;;;1.30;;
22851;SDS011;11592;45.460;9.240;2023-05-07T03:32:46;3.53;;;1.20;;
22851;SDS011;11592;45.460;9.240;2023-05-07T03:35:12;4.65;;;1.85;;
22851;SDS011;11592;45.460;9.240;2023-05-07T03:37:39;4.22;;;1.40;;
22851;SDS011;11592;45.460;9.240;2023-05-07T03:40:06;2.08;;;1.38;;
22851;SDS011;11592;45.460;9.240;2023-05-07T03:42:35;3.28;;;1.80;;
22851;SDS011;11592;45.460;9.240;2023-05-07T03:45:02;1.70;;;1.40;;
22851;SDS011;11592;45.460;9.240;2023-05-07T03:47:29;2.03;;;1.50;;
22851;SDS011;11592;45.460;9.240;2023-05-07T03:49:56;2.08;;;1.63;;
22851;SDS011;11592;45.460;9.240;2023-05-07T03:52:23;3.38;;;1.50;;
22851;SDS011;11592;45.460;9.240;2023-05-07T03:54:52;2.00;;;1.42;;
22851;SDS011;11592;45.460;9.240;2023-05-07T03:57:19;1.67;;;1.30;;
22851;SDS011;11592;45.460;9.240;2023-05-07T03:59:46;1.88;;;1.35;;
22851;SDS011;11592;45.460;9.240;2023-05-07T04:02:13;1.98;;;1.50;;
22851;SDS011;11592;45.460;9.240;2023-05-07T04:04:40;1.33;;;1.20;;
22851;SDS011;11592;45.460;9.240;2023-05-07T04:07:07;2.58;;;1.42;;
22851;SDS011;11592;45.460;9.240;2023-05-07T04:09:34;3.65;;;1.50;;
22851;SDS011;11592;45.460;9.240;2023-05-07T04:12:00;3.83;;;1.50;;
22851;SDS011;11592;45.460;9.240;2023-05-07T04:14:27;9.57;;;1.52;;
22851;SDS011;11592;45.460;9.240;2023-05-07T04:16:54;4.07;;;1.55;;
22851;SDS011;11592;45.460;9.240;2023-05-07T04:19:21;1.70;;;1.30;;
22851;SDS011;11592;45.460;9.240;2023-05-07T04:21:47;2.25;;;1.30;;
22851;SDS011;11592;45.460;9.240;2023-05-07T04:24:14;1.95;;;1.10;;
22851;SDS011;11592;45.460;9.240;2023-05-07T04:26:41;8.98;;;2.35;;
22851;SDS011;11592;45.460;9.240;2023-05-07T04:29:08;1.52;;;1.20;;
22851;SDS011;11592;45.460;9.240;2023-05-07T04:31:35;2.63;;;1.40;;
22851;SDS011;11592;45.460;9.240;2023-05-07T04:34:02;1.38;;;1.25;;
22851;SDS011;11592;45.460;9.240;2023-05-07T04:36:29;2.47;;;1.30;;
22851;SDS011;11592;45.460;9.240;2023-05-07T04:38:56;1.27;;;1.10;;
22851;SDS011;11592;45.460;9.240;2023-05-07T04:41:23;2.25;;;1.27;;
22851;SDS011;11592;45.460;9.240;2023-05-07T04:43:50;3.03;;;1.30;;
22851;SDS011;11592;45.460;9.240;2023-05-07T04:46:17;2.17;;;1.40;;
22851;SDS011;11592;45.460;9.240;2023-05-07T04:48:44;2.05;;;1.30;;
22851;SDS011;11592;45.460;9.240;2023-05-07T04:51:11;1.83;;;1.33;;
22851;SDS011;11592;45.460;9.240;2023-05-07T04:53:38;2.38;;;1.20;;
22851;SDS011;11592;45.460;9.240;2023-05-07T04:56:04;2.90;;;1.25;;
22851;SDS011;11592;45.460;9.240;2023-05-07T04:58:31;1.77;;;1.10;;
22851;SDS011;11592;45.460;9.240;2023-05-07T05:00:58;1.50;;;1.10;;
22851;SDS011;11592;45.460;9.240;2023-05-07T05:03:26;2.13;;;1.23;;
22851;SDS011;11592;45.460;9.240;2023-05-07T05:05:53;2.85;;;1.15;;
22851;SDS011;11592;45.460;9.240;2023-05-07T05:08:20;1.80;;;1.38;;
22851;SDS011;11592;45.460;9.240;2023-05-07T05:10:47;1.25;;;1.15;;
22851;SDS011;11592;45.460;9.240;2023-05-07T05:13:16;1.65;;;1.17;;
22851;SDS011;11592;45.460;9.240;2023-05-07T05:15:43;3.53;;;1.38;;
22851;SDS011;11592;45.460;9.240;2023-05-07T05:18:10;1.80;;;1.15;;
22851;SDS011;11592;45.460;9.240;2023-05-07T05:20:36;1.52;;;0.82;;
22851;SDS011;11592;45.460;9.240;2023-05-07T05:23:03;3.70;;;1.10;;
22851;SDS011;11592;45.460;9.240;2023-05-07T05:25:30;1.33;;;1.05;;
22851;SDS011;11592;45.460;9.240;2023-05-07T05:27:57;3.05;;;1.40;;
22851;SDS011;11592;45.460;9.240;2023-05-07T05:30:23;2.20;;;1.35;;
22851;SDS011;11592;45.460;9.240;2023-05-07T05:32:50;5.07;;;1.30;;
22851;SDS011;11592;45.460;9.240;2023-05-07T05:35:17;6.45;;;1.50;;
22851;SDS011;11592;45.460;9.240;2023-05-07T05:37:44;5.68;;;1.70;;
22851;SDS011;11592;45.460;9.240;2023-05-07T05:40:10;4.20;;;1.50;;
22851;SDS011;11592;45.460;9.240;2023-05-07T05:42:38;2.22;;;1.40;;
22851;SDS011;11592;45.460;9.240;2023-05-07T05:45:05;2.88;;;1.35;;
22851;SDS011;11592;45.460;9.240;2023-05-07T05:47:32;2.83;;;1.58;;
22851;SDS011;11592;45.460;9.240;2023-05-07T05:49:58;2.10;;;1.33;;
22851;SDS011;11592;45.460;9.240;2023-05-07T05:52:26;1.20;;;1.10;;
22851;SDS011;11592;45.460;9.240;2023-05-07T05:54:53;1.70;;;1.38;;
22851;SDS011;11592;45.460;9.240;2023-05-07T05:57:19;2.20;;;1.20;;
22851;SDS011;11592;45.460;9.240;2023-05-07T05:59:46;1.52;;;1.20;;
22851;SDS011;11592;45.460;9.240;2023-05-07T06:02:13;1.90;;;1.52;;
22851;SDS011;11592;45.460;9.240;2023-05-07T06:04:40;1.55;;;1.33;;
22851;SDS011;11592;45.460;9.240;2023-05-07T06:07:09;10.00;;;1.58;;
22851;SDS011;11592;45.460;9.240;2023-05-07T06:09:36;1.92;;;1.30;;
22851;SDS011;11592;45.460;9.240;2023-05-07T06:12:02;2.78;;;1.40;;
22851;SDS011;11592;45.460;9.240;2023-05-07T06:14:29;1.98;;;1.40;;
22851;SDS011;11592;45.460;9.240;2023-05-07T06:16:56;6.72;;;1.50;;
22851;SDS011;11592;45.460;9.240;2023-05-07T06:19:23;2.30;;;1.40;;
22851;SDS011;11592;45.460;9.240;2023-05-07T06:21:52;2.22;;;1.50;;
22851;SDS011;11592;45.460;9.240;2023-05-07T06:24:19;3.55;;;1.60;;
22851;SDS011;11592;45.460;9.240;2023-05-07T06:26:46;2.53;;;1.30;;
22851;SDS011;11592;45.460;9.240;2023-05-07T06:29:13;3.25;;;1.30;;
22851;SDS011;11592;45.460;9.240;2023-05-07T06:31:40;3.08;;;1.50;;
22851;SDS011;11592;45.460;9.240;2023-05-07T06:34:07;1.55;;;1.13;;
22851;SDS011;11592;45.460;9.240;2023-05-07T06:36:34;1.90;;;1.40;;
22851;SDS011;11592;45.460;9.240;2023-05-07T06:39:01;2.03;;;1.23;;
22851;SDS011;11592;45.460;9.240;2023-05-07T06:41:28;3.08;;;1.40;;
22851;SDS011;11592;45.460;9.240;2023-05-07T06:43:54;2.42;;;1.20;;
22851;SDS011;11592;45.460;9.240;2023-05-07T06:46:21;2.10;;;1.17;;
22851;SDS011;11592;45.460;9.240;2023-05-07T06:48:48;2.17;;;1.25;;
22851;SDS011;11592;45.460;9.240;2023-05-07T06:51:15;2.05;;;1.40;;
22851;SDS011;11592;45.460;9.240;2023-05-07T06:53:42;1.88;;;1.40;;
22851;SDS011;11592;45.460;9.240;2023-05-07T06:56:09;1.27;;;1.17;;
22851;SDS011;11592;45.460;9.240;2023-05-07T06:58:36;1.77;;;1.17;;
22851;SDS011;11592;45.460;9.240;2023-05-07T07:01:03;2.83;;;1.45;;
22851;SDS011;11592;45.460;9.240;2023-05-07T07:03:30;3.15;;;1.35;;
22851;SDS011;11592;45.460;9.240;2023-05-07T07:05:57;5.43;;;1.30;;
22851;SDS011;11592;45.460;9.240;2023-05-07T07:08:23;2.42;;;1.40;;
22851;SDS011;11592;45.460;9.240;2023-05-07T07:10:50;1.80;;;1.20;;
22851;SDS011;11592;45.460;9.240;2023-05-07T07:13:17;2.22;;;1.30;;
22851;SDS011;11592;45.460;9.240;2023-05-07T07:15:45;2.47;;;1.50;;
22851;SDS011;11592;45.460;9.240;2023-05-07T07:18:12;2.70;;;1.20;;
22851;SDS011;11592;45.460;9.240;2023-05-07T07:20:38;1.70;;;1.20;;
22851;SDS011;11592;45.460;9.240;2023-05-07T07:23:05;1.30;;;1.10;;
22851;SDS011;11592;45.460;9.240;2023-05-07T07:25:32;2.30;;;1.38;;
22851;SDS011;11592;45.460;9.240;2023-05-07T07:27:59;1.77;;;1.40;;
22851;SDS011;11592;45.460;9.240;2023-05-07T07:30:26;3.05;;;1.30;;
22851;SDS011;11592;45.460;9.240;2023-05-07T07:32:53;3.28;;;1.30;;
22851;SDS011;11592;45.460;9.240;2023-05-07T07:35:21;3.78;;;1.60;;
22851;SDS011;11592;45.460;9.240;2023-05-07T07:37:48;2.88;;;1.60;;
22851;SDS011;11592;45.460;9.240;2023-05-07T07:40:16;2.25;;;1.20;;
22851;SDS011;11592;45.460;9.240;2023-05-07T07:42:43;2.70;;;1.40;;
22851;SDS011;11592;45.460;9.240;2023-05-07T07:45:10;2.83;;;1.25;;
22851;SDS011;11592;45.460;9.240;2023-05-07T07:47:37;2.13;;;1.20;;
22851;SDS011;11592;45.460;9.240;2023-05-07T07:50:04;2.80;;;1.33;;
22851;SDS011;11592;45.460;9.240;2023-05-07T07:52:31;2.78;;;1.30;;
22851;SDS011;11592;45.460;9.240;2023-05-07T07:54:58;3.47;;;1.75;;
22851;SDS011;11592;45.460;9.240;2023-05-07T07:57:25;1.83;;;1.30;;
22851;SDS011;11592;45.460;9.240;2023-05-07T07:59:52;4.70;;;1.25;;
22851;SDS011;11592;45.460;9.240;2023-05-07T08:02:19;1.10;;;1.00;;
22851;SDS011;11592;45.460;9.240;2023-05-07T08:04:46;1.27;;;1.17;;
22851;SDS011;11592;45.460;9.240;2023-05-07T08:07:13;2.72;;;1.33;;
22851;SDS011;11592;45.460;9.240;2023-05-07T08:09:40;2.85;;;1.77;;
22851;SDS011;11592;45.460;9.240;2023-05-07T08:12:07;2.65;;;1.80;;
22851;SDS011;11592;45.460;9.240;2023-05-07T08:14:34;3.28;;;1.73;;
22851;SDS011;11592;45.460;9.240;2023-05-07T08:17:02;1.98;;;1.60;;
22851;SDS011;11592;45.460;9.240;2023-05-07T08:19:29;5.22;;;1.58;;
22851;SDS011;11592;45.460;9.240;2023-05-07T08:21:56;3.47;;;1.95;;
22851;SDS011;11592;45.460;9.240;2023-05-07T08:24:23;5.68;;;2.08;;
22851;SDS011;11592;45.460;9.240;2023-05-07T08:26:50;4.85;;;1.70;;
22851;SDS011;11592;45.460;9.240;2023-05-07T08:29:17;2.20;;;1.92;;
22851;SDS011;11592;45.460;9.240;2023-05-07T08:31:43;3.30;;;1.63;;
22851;SDS011;11592;45.460;9.240;2023-05-07T08:34:10;2.80;;;1.30;;
22851;SDS011;11592;45.460;9.240;2023-05-07T08:36:37;3.47;;;2.08;;
22851;SDS011;11592;45.460;9.240;2023-05-07T08:39:04;3.97;;;1.50;;
22851;SDS011;11592;45.460;9.240;2023-05-07T08:41:31;2.85;;;1.20;;
22851;SDS011;11592;45.460;9.240;2023-05-07T08:43:58;2.53;;;1.40;;
22851;SDS011;11592;45.460;9.240;2023-05-07T08:46:26;4.18;;;1.42;;
22851;SDS011;11592;45.460;9.240;2023-05-07T08:48:58;3.95;;;1.25;;
22851;SDS011;11592;45.460;9.240;2023-05-07T08:51:25;5.18;;;1.27;;
22851;SDS011;11592;45.460;9.240;2023-05-07T08:53:53;4.28;;;1.10;;
22851;SDS011;11592;45.460;9.240;2023-05-07T08:56:20;4.10;;;1.60;;
22851;SDS011;11592;45.460;9.240;2023-05-07T08:58:49;2.65;;;1.88;;
22851;SDS011;11592;45.460;9.240;2023-05-07T09:01:16;2.17;;;1.40;;
22851;SDS011;11592;45.460;9.240;2023-05-07T09:03:46;2.97;;;1.80;;
22851;SDS011;11592;45.460;9.240;2023-05-07T09:06:13;2.67;;;1.80;;
22851;SDS011;11592;45.460;9.240;2023-05-07T09:08:40;2.78;;;1.83;;
22851;SDS011;11592;45.460;9.240;2023-05-07T09:11:07;2.72;;;1.70;;
22851;SDS011;11592;45.460;9.240;2023-05-07T09:13:34;1.83;;;1.63;;
22851;SDS011;11592;45.460;9.240;2023-05-07T09:16:10;1.90;;;1.42;;
22851;SDS011;11592;45.460;9.240;2023-05-07T09:18:44;3.70;;;1.60;;
22851;SDS011;11592;45.460;9.240;2023-05-07T09:21:11;3.10;;;1.92;;
22851;SDS011;11592;45.460;9.240;2023-05-07T09:23:42;2.50;;;1.95;;
22851;SDS011;11592;45.460;9.240;2023-05-07T09:26:08;3.42;;;2.30;;
22851;SDS011;11592;45.460;9.240;2023-05-07T09:28:38;3.55;;;2.20;;
22851;SDS011;11592;45.460;9.240;2023-05-07T09:31:08;3.72;;;1.98;;
22851;SDS011;11592;45.460;9.240;2023-05-07T09:33:35;3.97;;;2.00;;
22851;SDS011;11592;45.460;9.240;2023-05-07T09:36:03;4.45;;;1.88;;
22851;SDS011;11592;45.460;9.240;2023-05-07T09:38:32;4.90;;;2.00;;
22851;SDS011;11592;45.460;9.240;2023-05-07T09:41:10;3.58;;;1.98;;
22851;SDS011;11592;45.460;9.240;2023-05-07T09:43:39;4.50;;;2.00;;
22851;SDS011;11592;45.460;9.240;2023-05-07T09:46:08;3.45;;;1.80;;
22851;SDS011;11592;45.460;9.240;2023-05-07T09:48:41;2.33;;;1.63;;
22851;SDS011;11592;45.460;9.240;2023-05-07T09:51:32;2.65;;;1.73;;
22851;SDS011;11592;45.460;9.240;2023-05-07T09:54:02;2.67;;;2.05;;
22851;SDS011;11592;45.460;9.240;2023-05-07T09:56:31;2.75;;;2.00;;
22851;SDS011;11592;45.460;9.240;2023-05-07T09:58:59;3.38;;;1.85;;
22851;SDS011;11592;45.460;9.240;2023-05-07T10:01:26;2.33;;;1.83;;
22851;SDS011;11592;45.460;9.240;2023-05-07T10:03:54;2.75;;;1.70;;
22851;SDS011;11592;45.460;9.240;2023-05-07T10:06:23;3.08;;;2.00;;
22851;SDS011;11592;45.460;9.240;2023-05-07T10:08:51;2.58;;;2.35;;
22851;SDS011;11592;45.460;9.240;2023-05-07T10:11:19;3.35;;;1.98;;
22851;SDS011;11592;45.460;9.240;2023-05-07T10:13:48;4.25;;;1.90;;
22851;SDS011;11592;45.460;9.240;2023-05-07T10:16:15;3.00;;;1.90;;
22851;SDS011;11592;45.460;9.240;2023-05-07T10:18:43;4.10;;;2.40;;
22851;SDS011;11592;45.460;9.240;2023-05-07T10:21:11;4.57;;;2.03;;
22851;SDS011;11592;45.460;9.240;2023-05-07T10:23:39;3.50;;;2.33;;
22851;SDS011;11592;45.460;9.240;2023-05-07T10:26:07;4.00;;;2.10;;
22851;SDS011;11592;45.460;9.240;2023-05-07T10:28:36;2.42;;;2.20;;
22851;SDS011;11592;45.460;9.240;2023-05-07T10:33:45;5.75;;;2.40;;
22851;SDS011;11592;45.460;9.240;2023-05-07T10:36:15;3.05;;;2.20;;
22851;SDS011;11592;45.460;9.240;2023-05-07T10:38:42;3.40;;;2.60;;
22851;SDS011;11592;45.460;9.240;2023-05-07T10:41:09;3.17;;;1.98;;
22851;SDS011;11592;45.460;9.240;2023-05-07T10:43:41;2.42;;;1.90;;
22851;SDS011;11592;45.460;9.240;2023-05-07T10:46:10;2.63;;;1.90;;
22851;SDS011;11592;45.460;9.240;2023-05-07T10:51:31;2.88;;;1.90;;
22851;SDS011;11592;45.460;9.240;2023-05-07T10:56:41;1.60;;;1.50;;
22851;SDS011;11592;45.460;9.240;2023-05-07T11:01:50;2.92;;;2.13;;
22851;SDS011;11592;45.460;9.240;2023-05-07T11:04:21;5.35;;;1.70;;
22851;SDS011;11592;45.460;9.240;2023-05-07T11:07:35;4.68;;;2.13;;
22851;SDS011;11592;45.460;9.240;2023-05-07T11:13:04;2.08;;;1.80;;
22851;SDS011;11592;45.460;9.240;2023-05-07T11:15:07;4.80;;;2.30;;
22851;SDS011;11592;45.460;9.240;2023-05-07T11:17:57;3.33;;;2.10;;
22851;SDS011;11592;45.460;9.240;2023-05-07T11:26:04;2.00;;;1.80;;
22851;SDS011;11592;45.460;9.240;2023-05-07T11:28:36;2.42;;;2.08;;
22851;SDS011;11592;45.460;9.240;2023-05-07T11:31:07;2.63;;;2.10;;
22851;SDS011;11592;45.460;9.240;2023-05-07T11:33:35;2.80;;;2.13;;
22851;SDS011;11592;45.460;9.240;2023-05-07T11:36:03;5.63;;;2.10;;
22851;SDS011;11592;45.460;9.240;2023-05-07T11:38:30;4.53;;;2.35;;
22851;SDS011;11592;45.460;9.240;2023-05-07T11:41:01;3.08;;;2.03;;
22851;SDS011;11592;45.460;9.240;2023-05-07T11:43:28;4.18;;;2.20;;
22851;SDS011;11592;45.460;9.240;2023-05-07T11:46:04;4.05;;;2.03;;
22851;SDS011;11592;45.460;9.240;2023-05-07T11:48:38;3.15;;;2.63;;
22851;SDS011;11592;45.460;9.240;2023-05-07T11:51:05;3.15;;;2.60;;
22851;SDS011;11592;45.460;9.240;2023-05-07T11:53:36;3.33;;;2.58;;
22851;SDS011;11592;45.460;9.240;2023-05-07T11:56:07;3.33;;;2.40;;
22851;SDS011;11592;45.460;9.240;2023-05-07T11:58:35;3.88;;;2.30;;
22851;SDS011;11592;45.460;9.240;2023-05-07T12:01:03;6.28;;;3.28;;
22851;SDS011;11592;45.460;9.240;2023-05-07T12:03:29;4.35;;;2.70;;
22851;SDS011;11592;45.460;9.240;2023-05-07T12:06:01;4.75;;;2.58;;
22851;SDS011;11592;45.460;9.240;2023-05-07T12:08:28;3.28;;;2.40;;
22851;SDS011;11592;45.460;9.240;2023-05-07T12:10:55;6.60;;;2.22;;
22851;SDS011;11592;45.460;9.240;2023-05-07T12:13:25;3.53;;;2.28;;
22851;SDS011;11592;45.460;9.240;2023-05-07T12:15:53;4.60;;;2.20;;
22851;SDS011;11592;45.460;9.240;2023-05-07T12:18:22;2.40;;;2.10;;
22851;SDS011;11592;45.460;9.240;2023-05-07T12:20:49;2.63;;;1.98;;
22851;SDS011;11592;45.460;9.240;2023-05-07T12:23:16;3.03;;;1.83;;
22851;SDS011;11592;45.460;9.240;2023-05-07T12:25:44;2.00;;;1.80;;
22851;SDS011;11592;45.460;9.240;2023-05-07T12:28:14;1.73;;;1.63;;
22851;SDS011;11592;45.460;9.240;2023-05-07T12:30:42;3.05;;;2.03;;
22851;SDS011;11592;45.460;9.240;2023-05-07T12:33:10;2.33;;;2.10;;
22851;SDS011;11592;45.460;9.240;2023-05-07T12:35:39;3.30;;;2.13;;
22851;SDS011;11592;45.460;9.240;2023-05-07T12:38:08;2.30;;;1.77;;
22851;SDS011;11592;45.460;9.240;2023-05-07T12:40:36;2.17;;;1.77;;
22851;SDS011;11592;45.460;9.240;2023-05-07T12:43:04;3.17;;;1.77;;
22851;SDS011;11592;45.460;9.240;2023-05-07T12:45:31;3.88;;;1.80;;
22851;SDS011;11592;45.460;9.240;2023-05-07T12:48:02;3.78;;;1.52;;
22851;SDS011;11592;45.460;9.240;2023-05-07T12:50:33;3.75;;;2.10;;
22851;SDS011;11592;45.460;9.240;2023-05-07T12:52:59;1.70;;;1.60;;
22851;SDS011;11592;45.460;9.240;2023-05-07T12:55:32;2.97;;;1.77;;
22851;SDS011;11592;45.460;9.240;2023-05-07T12:58:06;2.45;;;1.60;;
22851;SDS011;11592;45.460;9.240;2023-05-07T13:00:36;2.70;;;2.00;;
22851;SDS011;11592;45.460;9.240;2023-05-07T13:03:04;3.13;;;1.67;;
22851;SDS011;11592;45.460;9.240;2023-05-07T13:05:31;1.98;;;1.77;;
22851;SDS011;11592;45.460;9.240;2023-05-07T13:07:58;2.22;;;1.83;;
22851;SDS011;11592;45.460;9.240;2023-05-07T13:10:25;3.83;;;2.00;;
22851;SDS011;11592;45.460;9.240;2023-05-07T13:12:53;2.55;;;2.08;;
22851;SDS011;11592;45.460;9.240;2023-05-07T13:15:19;2.90;;;1.70;;
22851;SDS011;11592;45.460;9.240;2023-05-07T13:17:47;3.25;;;1.75;;
22851;SDS011;11592;45.460;9.240;2023-05-07T13:20:13;3.55;;;1.98;;
22851;SDS011;11592;45.460;9.240;2023-05-07T13:22:41;2.67;;;2.00;;
22851;SDS011;11592;45.460;9.240;2023-05-07T13:25:08;1.98;;;1.42;;
22851;SDS011;11592;45.460;9.240;2023-05-07T13:27:35;2.65;;;1.73;;
22851;SDS011;11592;45.460;9.240;2023-05-07T13:30:03;1.60;;;1.50;;
22851;SDS011;11592;45.460;9.240;2023-05-07T13:32:31;3.28;;;1.52;;
22851;SDS011;11592;45.460;9.240;2023-05-07T13:34:58;2.13;;;1.70;;
22851;SDS011;11592;45.460;9.240;2023-05-07T13:37:25;2.13;;;1.67;;
22851;SDS011;11592;45.460;9.240;2023-05-07T13:39:52;2.28;;;1.50;;
22851;SDS011;11592;45.460;9.240;2023-05-07T13:42:19;1.55;;;1.45;;
22851;SDS011;11592;45.460;9.240;2023-05-07T13:44:46;1.60;;;1.50;;
22851;SDS011;11592;45.460;9.240;2023-05-07T13:47:12;2.13;;;1.63;;
22851;SDS011;11592;45.460;9.240;2023-05-07T13:49:39;2.90;;;1.42;;
22851;SDS011;11592;45.460;9.240;2023-05-07T13:52:06;2.03;;;1.45;;
22851;SDS011;11592;45.460;9.240;2023-05-07T13:54:32;4.68;;;1.58;;
22851;SDS011;11592;45.460;9.240;2023-05-07T13:56:59;2.63;;;1.50;;
22851;SDS011;11592;45.460;9.240;2023-05-07T13:59:26;2.95;;;1.63;;
22851;SDS011;11592;45.460;9.240;2023-05-07T14:01:53;4.72;;;3.28;;
22851;SDS011;11592;45.460;9.240;2023-05-07T14:04:20;2.08;;;1.50;;
22851;SDS011;11592;45.460;9.240;2023-05-07T14:06:48;1.58;;;1.48;;
22851;SDS011;11592;45.460;9.240;2023-05-07T14:09:14;2.00;;;1.80;;
22851;SDS011;11592;45.460;9.240;2023-05-07T14:11:41;3.15;;;1.65;;
22851;SDS011;11592;45.460;9.240;2023-05-07T14:14:08;4.90;;;1.70;;
22851;SDS011;11592;45.460;9.240;2023-05-07T14:16:38;2.15;;;1.80;;
22851;SDS011;11592;45.460;9.240;2023-05-07T14:19:04;3.15;;;1.88;;
22851;SDS011;11592;45.460;9.240;2023-05-07T14:21:31;3.25;;;1.70;;
22851;SDS011;11592;45.460;9.240;2023-05-07T14:23:58;2.13;;;1.70;;
22851;SDS011;11592;45.460;9.240;2023-05-07T14:26:26;5.40;;;1.70;;
22851;SDS011;11592;45.460;9.240;2023-05-07T14:28:53;2.50;;;1.80;;
22851;SDS011;11592;45.460;9.240;2023-05-07T14:31:21;1.50;;;1.40;;
22851;SDS011;11592;45.460;9.240;2023-05-07T14:33:48;1.60;;;1.50;;
22851;SDS011;11592;45.460;9.240;2023-05-07T14:36:16;2.38;;;1.85;;
22851;SDS011;11592;45.460;9.240;2023-05-07T14:38:46;3.42;;;1.75;;
22851;SDS011;11592;45.460;9.240;2023-05-07T14:41:13;2.90;;;1.60;;
22851;SDS011;11592;45.460;9.240;2023-05-07T14:43:41;5.20;;;1.65;;
22851;SDS011;11592;45.460;9.240;2023-05-07T14:46:07;3.25;;;1.70;;
22851;SDS011;11592;45.460;9.240;2023-05-07T14:48:34;1.92;;;1.60;;
22851;SDS011;11592;45.460;9.240;2023-05-07T14:51:01;1.60;;;1.30;;
22851;SDS011;11592;45.460;9.240;2023-05-07T14:53:28;2.65;;;2.00;;
22851;SDS011;11592;45.460;9.240;2023-05-07T14:55:54;5.70;;;1.70;;
22851;SDS011;11592;45.460;9.240;2023-05-07T14:58:21;3.75;;;1.63;;
22851;SDS011;11592;45.460;9.240;2023-05-07T15:00:48;2.80;;;1.48;;
22851;SDS011;11592;45.460;9.240;2023-05-07T15:03:15;4.45;;;2.00;;
22851;SDS011;11592;45.460;9.240;2023-05-07T15:05:42;2.58;;;1.77;;